Time;durP1;ratioP1;P1;durP2;ratioP2;P2;SDS_P1;SDS_P2;PMS_P1;PMS_P2;Temp;Humidity;BMP_temperature;BMP_pressure;BME280_temperature;BME280_humidity;BME280_pressure;Samples;Min_cycle;Max_cycle;Signal;HPM_P1;HPM_P2
2022/10/16 00:00:31;;;;;;;15.40;8.93;;;;;;;12.70;61.40;100118.25;5018973;28;20417;-69
2022/10/16 00:02:56;;;;;;;26.27;13.55;;;;;;;12.50;62.18;100126.22;4994623;28;20029;-69
2022/10/16 00:05:21;;;;;;;32.72;17.75;;;;;;;12.27;62.79;100113.53;5006279;28;20029;-70
2022/10/16 00:07:47;;;;;;;23.70;12.30;;;;;;;12.20;63.47;100119.63;5013393;28;20539;-69
2022/10/16 00:10:12;;;;;;;26.95;13.00;;;;;;;12.45;62.57;100123.59;5012268;28;20022;-69
2022/10/16 00:12:38;;;;;;;19.25;11.25;;;;;;;12.47;62.66;100114.81;5011889;28;20576;-69
2022/10/16 00:15:04;;;;;;;17.63;10.65;;;;;;;12.48;62.50;100125.72;5012118;28;20033;-69
2022/10/16 00:17:29;;;;;;;26.23;9.80;;;;;;;12.46;62.58;100125.25;5013562;28;20080;-69
2022/10/16 00:19:55;;;;;;;18.73;10.80;;;;;;;12.46;62.59;100132.81;5013917;28;20475;-69
2022/10/16 00:22:20;;;;;;;18.65;10.65;;;;;;;12.37;62.77;100124.41;5012492;28;20088;-69
2022/10/16 00:24:46;;;;;;;18.30;9.98;;;;;;;12.35;63.02;100130.34;5011817;28;20014;-69
2022/10/16 00:27:11;;;;;;;19.17;10.90;;;;;;;12.32;62.76;100119.00;5012824;28;20041;-69
2022/10/16 00:29:37;;;;;;;12.60;8.70;;;;;;;12.27;62.83;100124.75;5011081;28;20022;-70
2022/10/16 00:32:02;;;;;;;17.25;9.15;;;;;;;12.23;63.15;100127.38;5006284;28;20428;-69
2022/10/16 00:34:28;;;;;;;13.18;9.88;;;;;;;12.19;63.22;100123.59;5010740;28;20429;-70
2022/10/16 00:36:53;;;;;;;19.52;10.15;;;;;;;12.17;63.20;100121.13;5011603;28;20116;-69
2022/10/16 00:39:19;;;;;;;17.38;9.82;;;;;;;12.06;63.65;100122.59;5012407;28;20477;-69
2022/10/16 00:41:44;;;;;;;15.98;9.90;;;;;;;11.70;63.93;100123.69;5012461;28;20022;-69
2022/10/16 00:44:41;;;;;;;15.98;9.05;;;;;;;11.68;63.85;100132.44;5011735;28;20026;-69
2022/10/16 00:47:15;;;;;;;27.75;10.20;;;;;;;11.74;64.62;100135.91;5012332;28;20148;-69
2022/10/16 00:49:41;;;;;;;17.85;9.02;;;;;;;11.62;64.45;100142.13;5008914;28;20092;-69
2022/10/16 00:52:06;;;;;;;13.90;9.38;;;;;;;11.44;64.65;100142.09;5011253;28;20577;-69
2022/10/16 00:54:33;;;;;;;15.05;9.77;;;;;;;11.15;65.95;100153.84;5012574;28;20021;-69
2022/10/16 00:57:02;;;;;;;14.30;9.68;;;;;;;11.05;66.13;100158.56;5011087;28;20416;-69
2022/10/16 00:59:32;;;;;;;22.33;9.13;;;;;;;11.34;65.55;100157.22;5013134;28;20032;-69
2022/10/16 01:01:58;;;;;;;15.43;8.82;;;;;;;11.45;65.32;100165.31;5011278;28;20072;-69
2022/10/16 01:04:25;;;;;;;15.07;9.85;;;;;;;11.24;65.42;100166.72;5010397;28;20616;-69
2022/10/16 01:07:06;;;;;;;11.05;8.68;;;;;;;11.22;65.18;100180.22;5013211;28;20037;-69
2022/10/16 01:10:01;;;;;;;14.65;9.00;;;;;;;11.22;64.86;100176.56;5013218;28;20464;-69
2022/10/16 01:12:52;;;;;;;19.25;9.10;;;;;;;11.28;64.75;100197.69;5011991;28;20467;-69
2022/10/16 01:15:33;;;;;;;12.00;8.82;;;;;;;11.20;64.81;100188.13;5009070;28;20022;-69
2022/10/16 01:18:08;;;;;;;16.80;9.38;;;;;;;11.28;65.01;100185.66;5012901;28;20026;-69
2022/10/16 01:20:38;;;;;;;13.77;9.32;;;;;;;11.24;65.51;100182.72;5012947;28;20033;-69
2022/10/16 01:23:16;;;;;;;14.73;8.57;;;;;;;11.06;65.92;100179.78;5012096;28;20030;-69
2022/10/16 01:26:19;;;;;;;13.45;9.27;;;;;;;11.03;65.71;100185.22;5011890;28;20030;-69
2022/10/16 01:29:15;;;;;;;13.23;8.65;;;;;;;11.00;65.85;100183.91;5011277;28;20487;-69
2022/10/16 01:31:46;;;;;;;11.73;8.60;;;;;;;11.11;65.21;100181.63;5011531;28;20493;-69
2022/10/16 01:34:21;;;;;;;15.27;9.35;;;;;;;11.09;65.42;100190.34;5008327;28;20053;-69
2022/10/16 01:37:02;;;;;;;11.50;8.85;;;;;;;11.00;64.95;100192.28;5010585;28;20512;-69
2022/10/16 01:39:31;;;;;;;23.77;9.70;;;;;;;10.92;64.64;100187.47;5010600;28;20495;-69
2022/10/16 01:42:20;;;;;;;19.90;10.00;;;;;;;10.70;64.94;100186.31;5011275;28;20030;-69
2022/10/16 01:44:48;;;;;;;17.02;12.63;;;;;;;10.14;67.73;100189.31;5010207;28;20125;-69
2022/10/16 01:47:15;;;;;;;17.02;10.80;;;;;;;9.76;70.18;100197.94;5012363;28;20041;-69
2022/10/16 01:49:42;;;;;;;14.25;10.00;;;;;;;9.54;71.00;100196.75;5011711;28;20088;-69
2022/10/16 01:52:14;;;;;;;14.30;10.15;;;;;;;9.51;71.52;100192.59;5012313;28;20029;-69
2022/10/16 01:54:42;;;;;;;20.70;11.48;;;;;;;9.25;72.05;100200.63;5010136;28;20018;-69
2022/10/16 01:57:08;;;;;;;19.73;12.55;;;;;;;9.53;71.71;100197.84;5011638;28;20026;-69
2022/10/16 01:59:44;;;;;;;17.48;11.98;;;;;;;9.60;70.80;100200.25;5012281;28;20032;-69
2022/10/16 02:02:11;;;;;;;17.60;10.43;;;;;;;9.58;71.09;100203.34;5010754;28;20124;-69
2022/10/16 02:04:44;;;;;;;15.75;10.02;;;;;;;9.82;70.25;100196.72;5011088;28;20018;-69
2022/10/16 02:07:10;;;;;;;14.93;11.38;;;;;;;9.89;69.78;100205.47;5010077;28;20401;-70
2022/10/16 02:09:36;;;;;;;16.48;10.55;;;;;;;9.90;69.13;100209.13;5011983;28;20029;-69
2022/10/16 02:12:21;;;;;;;20.38;9.60;;;;;;;10.09;69.46;100209.81;5009509;28;20083;-69
2022/10/16 02:14:46;;;;;;;11.55;8.20;;;;;;;10.11;68.78;100203.91;5009088;28;20013;-69
2022/10/16 02:17:15;;;;;;;11.43;9.05;;;;;;;10.09;69.29;100197.81;5012069;28;20579;-69
2022/10/16 02:19:41;;;;;;;18.20;9.90;;;;;;;10.20;68.28;100204.00;5010582;28;20103;-69
2022/10/16 02:22:10;;;;;;;21.50;9.20;;;;;;;10.24;68.25;100207.81;5010020;28;20120;-70
2022/10/16 02:24:42;;;;;;;16.83;10.80;;;;;;;10.18;68.84;100204.31;5008896;28;20604;-69
2022/10/16 02:27:17;;;;;;;15.43;10.13;;;;;;;10.29;68.53;100215.25;5011861;28;20053;-69
2022/10/16 02:29:50;;;;;;;20.25;10.38;;;;;;;10.29;68.72;100215.25;5009904;28;20095;-69
2022/10/16 02:32:23;;;;;;;25.30;10.70;;;;;;;10.29;68.39;100210.47;5010068;28;20022;-69
2022/10/16 02:34:50;;;;;;;18.83;12.57;;;;;;;9.94;69.34;100212.94;5010131;28;20419;-69
2022/10/16 02:37:17;;;;;;;19.42;11.63;;;;;;;9.17;71.67;100209.72;5009108;28;20044;-70
2022/10/16 02:39:43;;;;;;;19.48;11.25;;;;;;;8.76;74.37;100220.47;5012422;28;20428;-69
2022/10/16 02:42:13;;;;;;;18.23;10.88;;;;;;;8.98;73.46;100211.44;5014371;28;20022;-69
2022/10/16 02:44:39;;;;;;;16.73;10.60;;;;;;;9.20;72.14;100211.91;4997172;28;20552;-69
2022/10/16 02:47:05;;;;;;;15.68;10.60;;;;;;;9.31;71.01;100224.53;5014793;28;20038;-69
2022/10/16 02:49:30;;;;;;;19.98;11.45;;;;;;;8.76;72.80;100219.66;5012221;28;20036;-69
2022/10/16 02:51:56;;;;;;;18.30;11.65;;;;;;;8.60;73.25;100231.03;5015749;28;20092;-68
2022/10/16 02:54:21;;;;;;;17.15;11.07;;;;;;;8.51;73.87;100228.13;5012764;28;20030;-70
2022/10/16 02:56:47;;;;;;;19.92;11.00;;;;;;;8.69;73.45;100228.41;5015595;28;20028;-69
2022/10/16 02:59:12;;;;;;;14.40;10.65;;;;;;;8.81;73.46;100230.72;5014842;28;20044;-69
2022/10/16 03:01:38;;;;;;;19.45;11.75;;;;;;;8.99;72.67;100226.22;5013517;28;20040;-69
2022/10/16 03:04:03;;;;;;;21.85;12.73;;;;;;;9.21;71.31;100231.13;5015268;28;20029;-69
2022/10/16 03:06:29;;;;;;;15.93;12.02;;;;;;;9.25;70.90;100234.13;5013471;28;20515;-69
2022/10/16 03:08:54;;;;;;;21.33;12.32;;;;;;;9.24;70.04;100233.31;5015364;28;20343;-68
2022/10/16 03:11:19;;;;;;;18.13;11.07;;;;;;;8.76;71.75;100242.78;5013695;28;20033;-69
2022/10/16 03:13:45;;;;;;;16.83;10.43;;;;;;;8.37;72.69;100243.91;5012825;28;20033;-68
2022/10/16 03:16:10;;;;;;;18.52;11.55;;;;;;;8.18;73.52;100247.50;5012826;28;20060;-69
2022/10/16 03:18:36;;;;;;;22.27;12.75;;;;;;;7.84;74.75;100248.50;5014120;28;20025;-68
2022/10/16 03:21:01;;;;;;;14.80;10.63;;;;;;;7.84;75.02;100248.50;5015453;28;20022;-68
2022/10/16 03:23:27;;;;;;;15.88;11.40;;;;;;;7.69;75.56;100252.31;5014050;28;20033;-68
2022/10/16 03:25:53;;;;;;;19.02;13.45;;;;;;;7.45;76.40;100253.97;5012700;28;20029;-68
2022/10/16 03:28:19;;;;;;;18.98;12.38;;;;;;;7.27;77.14;100271.41;5014059;28;20029;-68
2022/10/16 03:30:44;;;;;;;18.52;12.65;;;;;;;7.30;77.54;100273.59;5012865;28;20026;-68
2022/10/16 03:33:10;;;;;;;18.20;11.95;;;;;;;7.13;77.93;100268.47;5009101;28;20404;-69
2022/10/16 03:35:35;;;;;;;15.73;11.05;;;;;;;7.25;77.75;100265.31;5012453;28;20083;-69
2022/10/16 03:38:01;;;;;;;17.15;10.80;;;;;;;7.19;78.06;100263.69;5013714;28;20025;-68
2022/10/16 03:40:26;;;;;;;15.43;11.40;;;;;;;7.33;78.08;100275.78;5014819;28;20512;-69
2022/10/16 03:42:52;;;;;;;17.80;10.95;;;;;;;7.58;77.33;100265.50;5013451;28;20033;-68
2022/10/16 03:45:18;;;;;;;21.42;12.20;;;;;;;7.78;76.44;100252.50;5013663;28;20564;-69
2022/10/16 03:47:43;;;;;;;20.77;12.27;;;;;;;7.83;75.78;100263.56;5014774;28;20109;-68
2022/10/16 03:50:09;;;;;;;17.55;11.70;;;;;;;7.79;75.51;100263.34;5013330;28;20089;-69
2022/10/16 03:52:34;;;;;;;15.85;10.63;;;;;;;7.72;75.92;100262.88;5013870;28;20030;-69
2022/10/16 03:55:00;;;;;;;26.20;11.50;;;;;;;7.71;76.10;100256.44;5010176;28;20041;-68
2022/10/16 03:57:25;;;;;;;19.13;10.32;;;;;;;7.70;76.20;100257.56;5013549;28;20022;-68
2022/10/16 03:59:51;;;;;;;17.52;10.15;;;;;;;7.97;75.27;100250.59;5013558;28;20017;-69
2022/10/16 04:02:16;;;;;;;14.95;10.63;;;;;;;7.98;74.34;100257.81;5014454;28;20034;-69
2022/10/16 04:04:42;;;;;;;16.48;10.25;;;;;;;7.87;74.78;100259.06;5013249;28;20070;-68
2022/10/16 04:07:07;;;;;;;17.15;9.68;;;;;;;7.82;75.38;100250.75;5013363;28;20044;-68
2022/10/16 04:09:33;;;;;;;21.55;12.07;;;;;;;7.99;75.16;100265.03;5014269;28;20096;-68
2022/10/16 04:11:58;;;;;;;21.58;10.52;;;;;;;7.54;76.33;100273.66;5012860;28;20034;-68
2022/10/16 04:14:24;;;;;;;19.33;11.50;;;;;;;7.46;76.33;100268.72;5011289;28;20452;-68
2022/10/16 04:16:49;;;;;;;23.90;15.90;;;;;;;7.37;77.10;100270.47;5014330;28;20111;-68
2022/10/16 04:19:15;;;;;;;25.67;16.40;;;;;;;7.52;76.84;100269.50;5012119;28;20041;-69
2022/10/16 04:21:40;;;;;;;33.80;20.45;;;;;;;7.83;76.07;100264.41;5014235;28;20026;-68
2022/10/16 04:24:06;;;;;;;33.13;19.75;;;;;;;8.01;74.97;100271.16;5011672;28;20033;-69
2022/10/16 04:26:31;;;;;;;49.78;28.90;;;;;;;8.21;74.92;100263.66;5013036;28;20097;-69
2022/10/16 04:28:56;;;;;;;41.17;26.95;;;;;;;7.92;74.35;100264.56;5012808;28;20072;-69
2022/10/16 04:31:22;;;;;;;30.95;22.92;;;;;;;7.94;74.06;100269.84;5012006;28;20030;-68
2022/10/16 04:33:48;;;;;;;31.67;18.25;;;;;;;7.90;74.60;100268.78;5010757;28;20050;-68
2022/10/16 04:36:13;;;;;;;23.20;15.35;;;;;;;7.98;74.18;100270.91;5013668;28;20053;-68
2022/10/16 04:38:39;;;;;;;23.00;14.40;;;;;;;8.09;74.12;100282.78;5013328;28;20551;-69
2022/10/16 04:41:06;;;;;;;21.75;13.98;;;;;;;7.86;74.75;100277.72;4998423;28;20037;-68
2022/10/16 04:43:32;;;;;;;24.35;13.57;;;;;;;7.65;75.16;100279.94;5010500;28;20029;-69
2022/10/16 04:45:57;;;;;;;28.33;12.65;;;;;;;7.83;75.54;100283.06;5011155;28;20539;-71
2022/10/16 04:48:23;;;;;;;19.08;11.32;;;;;;;7.73;75.16;100293.22;5010144;28;20065;-68
2022/10/16 04:50:48;;;;;;;19.02;12.82;;;;;;;7.53;75.01;100299.81;5013489;28;20108;-70
2022/10/16 04:53:14;;;;;;;22.05;14.13;;;;;;;7.28;76.08;100295.34;5010820;28;20034;-66
2022/10/16 04:55:41;;;;;;;30.10;15.82;;;;;;;7.24;76.73;100286.75;5011374;28;20037;-69
2022/10/16 04:58:06;;;;;;;29.05;19.48;;;;;;;7.54;76.05;100298.72;5011637;28;20029;-68
2022/10/16 05:00:32;;;;;;;29.13;19.42;;;;;;;7.37;75.51;100306.66;5013354;28;20053;-69
2022/10/16 05:02:59;;;;;;;27.95;20.10;;;;;;;7.46;75.38;100302.13;5009813;28;20125;-69
2022/10/16 05:05:25;;;;;;;33.53;19.23;;;;;;;7.64;75.40;100306.13;4996480;28;20037;-69
2022/10/16 05:07:51;;;;;;;26.23;16.90;;;;;;;7.81;74.80;100313.16;5012429;28;20022;-67
2022/10/16 05:10:16;;;;;;;24.50;14.43;;;;;;;7.63;75.52;100315.59;5010064;28;20495;-69
2022/10/16 05:12:42;;;;;;;40.25;15.10;;;;;;;7.47;75.35;100316.84;5008199;28;20032;-69
2022/10/16 05:15:08;;;;;;;36.63;11.73;;;;;;;7.66;74.81;100326.13;5002239;28;20088;-70
2022/10/16 05:17:33;;;;;;;20.10;11.98;;;;;;;7.75;74.36;100320.75;5005316;28;20029;-70
2022/10/16 05:19:59;;;;;;;22.77;11.20;;;;;;;7.82;73.66;100329.59;5001634;28;20144;-68
2022/10/16 05:22:25;;;;;;;23.05;10.88;;;;;;;7.86;73.99;100330.66;5001389;28;20038;-70
2022/10/16 05:24:50;;;;;;;20.88;11.40;;;;;;;7.78;74.89;100330.47;5001545;28;20037;-69
2022/10/16 05:27:18;;;;;;;17.88;12.18;;;;;;;7.94;74.56;100331.94;5000223;28;20033;-69
2022/10/16 05:29:46;;;;;;;20.23;12.73;;;;;;;7.81;74.90;100349.38;4999653;28;20093;-68
2022/10/16 05:32:12;;;;;;;18.02;11.95;;;;;;;7.96;75.66;100345.59;5011476;28;20087;-68
2022/10/16 05:34:38;;;;;;;18.00;12.45;;;;;;;8.17;74.76;100359.31;5004596;28;20022;-68
2022/10/16 05:37:03;;;;;;;14.20;10.95;;;;;;;8.35;73.61;100346.53;5008207;28;20026;-70
2022/10/16 05:39:28;;;;;;;27.05;12.23;;;;;;;8.39;73.35;100353.16;4996851;28;20083;-71
2022/10/16 05:41:54;;;;;;;19.52;12.77;;;;;;;8.60;73.17;100352.94;5009824;28;20025;-70
2022/10/16 05:44:20;;;;;;;16.92;11.90;;;;;;;8.57;72.71;100359.94;5009457;28;20026;-69
2022/10/16 05:46:46;;;;;;;16.50;11.73;;;;;;;8.79;72.40;100350.16;5004605;28;20042;-68
2022/10/16 05:49:12;;;;;;;22.27;14.63;;;;;;;8.88;71.76;100362.28;4994805;28;20065;-68
2022/10/16 05:51:37;;;;;;;25.23;18.02;;;;;;;9.06;72.04;100363.41;5005893;28;20057;-70
2022/10/16 05:54:03;;;;;;;23.60;15.18;;;;;;;8.11;75.72;100366.88;5007987;28;20538;-70
2022/10/16 05:56:28;;;;;;;30.38;16.92;;;;;;;8.09;77.45;100383.09;5010344;28;20060;-72
2022/10/16 05:58:54;;;;;;;19.63;12.77;;;;;;;8.10;77.69;100376.38;5010638;28;20034;-69
2022/10/16 06:01:20;;;;;;;22.58;14.07;;;;;;;8.14;78.81;100383.84;5009947;28;20033;-68
2022/10/16 06:03:46;;;;;;;26.33;17.05;;;;;;;8.21;78.76;100380.72;5011526;28;20083;-67
2022/10/16 06:06:14;;;;;;;25.80;14.27;;;;;;;8.54;77.88;100385.63;5009398;28;20034;-68
2022/10/16 06:08:41;;;;;;;22.30;15.05;;;;;;;8.79;77.68;100383.63;5006091;28;20036;-68
2022/10/16 06:11:09;;;;;;;28.38;19.08;;;;;;;8.56;77.20;100386.97;5009691;28;20117;-68
2022/10/16 06:13:35;;;;;;;28.75;18.92;;;;;;;8.66;77.78;100390.75;5010427;28;20029;-68
2022/10/16 06:16:01;;;;;;;29.92;20.35;;;;;;;8.71;77.06;100390.69;5012194;28;20540;-69
2022/10/16 06:18:28;;;;;;;35.38;21.92;;;;;;;9.05;76.53;100391.63;5011802;28;20512;-68
2022/10/16 06:20:54;;;;;;;28.10;19.02;;;;;;;9.20;75.54;100394.16;5008305;28;20053;-67
2022/10/16 06:23:20;;;;;;;21.10;14.32;;;;;;;9.20;75.01;100394.16;5010211;28;20461;-70
2022/10/16 06:25:45;;;;;;;14.65;12.23;;;;;;;9.40;74.48;100398.59;5011706;28;20029;-67
2022/10/16 06:28:11;;;;;;;23.23;13.75;;;;;;;9.59;74.31;100394.09;5009900;28;20029;-71
2022/10/16 06:30:36;;;;;;;22.67;12.45;;;;;;;9.48;74.21;100404.63;5007598;28;20032;-71
2022/10/16 06:33:02;;;;;;;19.90;11.35;;;;;;;9.91;72.75;100389.63;5010078;28;20104;-71
2022/10/16 06:35:29;;;;;;;15.10;11.60;;;;;;;10.12;72.35;100398.44;5009051;28;20504;-72
2022/10/16 06:37:54;;;;;;;16.10;10.57;;;;;;;10.46;70.59;100388.03;5010713;28;20095;-72
2022/10/16 06:40:20;;;;;;;20.48;10.75;;;;;;;10.67;70.04;100382.81;5009632;28;20113;-74
2022/10/16 06:42:45;;;;;;;30.73;11.88;;;;;;;10.59;70.94;100401.19;5009886;28;20021;-73
2022/10/16 06:45:11;;;;;;;12.35;10.32;;;;;;;11.04;69.17;100402.41;5005257;28;20064;-81
2022/10/16 06:47:36;;;;;;;18.88;10.35;;;;;;;11.05;68.85;100410.50;5001405;28;20053;-78
2022/10/16 06:50:03;;;;;;;22.00;9.75;;;;;;;11.23;68.32;100407.88;4995246;28;20405;-74
2022/10/16 06:52:29;;;;;;;13.30;10.35;;;;;;;11.47;66.81;100403.94;5009457;28;20029;-71
2022/10/16 06:54:55;;;;;;;16.13;9.90;;;;;;;10.99;67.85;100411.78;5010274;28;20069;-72
2022/10/16 06:57:20;;;;;;;12.45;8.95;;;;;;;10.94;67.94;100409.09;5010535;28;20025;-72
2022/10/16 06:59:45;;;;;;;16.58;11.32;;;;;;;10.81;69.41;100405.19;5011689;28;20026;-71
2022/10/16 07:02:11;;;;;;;12.80;8.25;;;;;;;10.65;69.13;100408.31;5008961;28;20033;-71
2022/10/16 07:04:36;;;;;;;55.58;42.53;;;;;;;10.97;68.49;100416.03;5010214;28;20037;-68
2022/10/16 07:07:02;;;;;;;12.52;9.75;;;;;;;10.80;69.12;100409.94;5011719;28;20401;-68
2022/10/16 07:09:28;;;;;;;21.70;13.98;;;;;;;11.09;69.13;100411.53;5010902;28;20065;-72
2022/10/16 07:11:53;;;;;;;15.70;8.98;;;;;;;11.08;68.05;100415.47;5009021;28;20405;-70
2022/10/16 07:14:20;;;;;;;14.27;8.85;;;;;;;10.93;69.36;100421.44;5009706;28;20056;-72
2022/10/16 07:16:46;;;;;;;16.13;8.52;;;;;;;11.34;68.76;100417.69;5011605;28;20113;-72
2022/10/16 07:19:14;;;;;;;17.85;9.23;;;;;;;11.54;67.64;100415.50;5011652;28;20469;-70
2022/10/16 07:21:39;;;;;;;17.10;10.35;;;;;;;11.85;67.00;100423.16;5010265;28;20029;-71
2022/10/16 07:24:10;;;;;;;17.60;9.30;;;;;;;12.16;66.03;100421.53;5010163;28;20034;-72
2022/10/16 07:26:38;;;;;;;14.35;8.43;;;;;;;12.16;65.09;100416.72;5013683;28;20112;-72
2022/10/16 07:29:05;;;;;;;16.10;9.68;;;;;;;12.32;65.55;100422.75;5013937;28;20026;-76
2022/10/16 07:31:30;;;;;;;16.85;9.52;;;;;;;12.22;65.30;100423.03;5014551;28;20026;-72
2022/10/16 07:33:58;;;;;;;14.85;9.32;;;;;;;12.33;64.96;100413.19;5013691;28;20052;-75
2022/10/16 07:36:24;;;;;;;15.75;8.85;;;;;;;12.26;64.98;100409.19;5013385;28;20397;-74
2022/10/16 07:38:49;;;;;;;12.55;9.52;;;;;;;12.26;65.36;100412.84;5014940;28;20022;-73
2022/10/16 07:41:18;;;;;;;12.25;9.50;;;;;;;12.74;64.66;100424.38;5014478;28;20045;-73
2022/10/16 07:43:52;;;;;;;18.05;9.23;;;;;;;13.14;62.97;100406.59;5014674;28;20103;-70
2022/10/16 07:46:19;;;;;;;18.13;8.70;;;;;;;13.30;61.78;100410.56;5014099;28;20030;-74
2022/10/16 07:48:46;;;;;;;11.13;7.78;;;;;;;13.10;61.92;100419.66;5014920;28;20080;-76
2022/10/16 07:51:17;;;;;;;12.40;9.15;;;;;;;13.65;60.98;100414.53;5012959;28;20030;-76
2022/10/16 07:53:43;;;;;;;14.68;9.15;;;;;;;13.90;60.00;100415.63;5005407;28;20034;-72
2022/10/16 07:56:08;;;;;;;13.15;8.43;;;;;;;13.15;61.75;100417.50;5002536;28;20096;-75
2022/10/16 07:58:36;;;;;;;13.98;9.27;;;;;;;13.53;60.64;100410.44;5014429;28;20105;-73
2022/10/16 08:01:11;;;;;;;15.40;8.77;;;;;;;13.45;60.95;100412.09;5013401;28;20025;-74
2022/10/16 08:03:37;;;;;;;14.02;9.15;;;;;;;13.79;60.15;100415.19;5013405;28;20030;-76
2022/10/16 08:06:05;;;;;;;12.43;8.93;;;;;;;13.44;61.37;100409.59;5014211;28;20048;-78
2022/10/16 08:08:30;;;;;;;19.35;8.65;;;;;;;13.52;60.86;100410.75;5012974;28;20034;-75
2022/10/16 08:10:56;;;;;;;11.68;8.70;;;;;;;13.82;60.22;100414.50;5013188;28;20471;-72
2022/10/16 08:13:22;;;;;;;14.45;9.02;;;;;;;13.81;60.49;100403.56;5014429;28;20022;-73
2022/10/16 08:15:47;;;;;;;10.35;8.57;;;;;;;13.83;60.14;100410.53;5014102;28;20076;-72
2022/10/16 08:18:14;;;;;;;16.58;8.70;;;;;;;14.04;59.19;100410.63;5013541;28;20084;-72
2022/10/16 08:20:41;;;;;;;24.00;10.43;;;;;;;14.46;58.44;100420.41;5012756;28;20120;-70
2022/10/16 08:23:07;;;;;;;12.18;8.38;;;;;;;14.45;57.92;100413.13;5013481;28;20033;-73
2022/10/16 08:25:38;;;;;;;16.75;8.70;;;;;;;14.54;57.09;100416.75;5008260;28;20025;-73
2022/10/16 08:28:05;;;;;;;12.52;9.18;;;;;;;14.53;56.97;100414.25;5009690;28;20045;-73
2022/10/16 08:30:31;;;;;;;14.35;9.30;;;;;;;14.81;57.08;100416.59;5007054;28;20044;-72
2022/10/16 08:32:57;;;;;;;12.75;8.23;;;;;;;15.00;56.60;100405.72;5004430;28;20516;-73
2022/10/16 08:35:23;;;;;;;15.50;12.43;;;;;;;15.12;56.59;100410.59;5005293;28;20460;-71
2022/10/16 08:37:49;;;;;;;15.18;9.00;;;;;;;15.40;55.28;100412.88;5008436;28;20036;-75
2022/10/16 08:40:25;;;;;;;9.75;8.13;;;;;;;15.74;53.40;100418.53;5000387;28;20037;-73
2022/10/16 08:43:08;;;;;;;19.77;9.55;;;;;;;15.83;53.24;100410.78;5001277;28;20040;-73
2022/10/16 08:45:43;;;;;;;10.88;8.75;;;;;;;15.61;53.82;100412.00;4999254;28;20428;-72
2022/10/16 08:48:25;;;;;;;13.23;7.93;;;;;;;15.80;53.79;100410.66;4994293;28;20030;-72
2022/10/16 08:50:52;;;;;;;11.07;8.40;;;;;;;15.89;52.59;100410.56;5006191;28;20101;-75
2022/10/16 08:53:24;;;;;;;13.30;7.85;;;;;;;15.95;51.82;100412.03;5007998;28;20511;-69
2022/10/16 08:55:52;;;;;;;18.50;9.20;;;;;;;16.47;51.24;100419.06;5002713;28;20032;-71
2022/10/16 08:58:20;;;;;;;9.88;7.10;;;;;;;16.77;51.27;100412.31;5012228;28;20527;-77
2022/10/16 09:00:58;;;;;;;10.48;8.10;;;;;;;16.74;49.73;100404.56;5011146;28;20026;-71
2022/10/16 09:03:43;;;;;;;10.77;8.30;;;;;;;16.91;49.48;100409.13;5013319;28;20400;-73
2022/10/16 09:06:25;;;;;;;17.73;9.32;;;;;;;17.37;48.93;100411.75;5013309;28;20026;-72
2022/10/16 09:09:24;;;;;;;11.63;7.78;;;;;;;17.47;48.27;100402.75;5013110;28;20021;-76
2022/10/16 09:12:17;;;;;;;8.95;7.53;;;;;;;16.80;48.96;100408.81;5010973;28;20042;-74
2022/10/16 09:15:01;;;;;;;14.05;8.40;;;;;;;16.68;49.93;100406.78;5013533;28;20076;-76
2022/10/16 09:17:35;;;;;;;8.95;7.15;;;;;;;17.24;49.14;100403.31;5010698;28;20172;-78
2022/10/16 09:20:13;;;;;;;15.27;7.60;;;;;;;17.19;47.19;100397.06;5011332;28;20120;-73
2022/10/16 09:22:39;;;;;;;12.48;7.90;;;;;;;16.98;46.50;100398.06;5011494;28;20030;-72
2022/10/16 09:25:13;;;;;;;14.20;7.97;;;;;;;17.42;47.18;100394.53;5004776;28;20031;-71
2022/10/16 09:27:38;;;;;;;15.27;8.45;;;;;;;17.61;45.96;100390.19;5011488;28;20032;-74
2022/10/16 09:30:16;;;;;;;17.92;7.88;;;;;;;17.72;46.23;100391.31;5005776;28;20026;-76
2022/10/16 09:32:44;;;;;;;10.18;7.10;;;;;;;18.00;46.20;100381.16;5006136;28;20591;-76
2022/10/16 09:35:39;;;;;;;12.60;7.05;;;;;;;17.71;46.08;100386.06;5011246;28;20022;-76
2022/10/16 09:38:04;;;;;;;13.48;6.97;;;;;;;17.95;45.89;100385.91;5005001;28;20045;-77
2022/10/16 09:40:38;;;;;;;9.52;7.28;;;;;;;17.45;45.73;100387.34;5006400;28;20476;-76
2022/10/16 09:43:19;;;;;;;10.23;6.82;;;;;;;17.76;46.07;100383.78;5003544;28;20045;-77
2022/10/16 09:46:00;;;;;;;14.40;7.35;;;;;;;17.97;44.77;100377.03;5003769;28;20037;-76
2022/10/16 09:48:33;;;;;;;14.95;7.25;;;;;;;17.93;44.64;100381.78;5003942;28;20029;-79
2022/10/16 09:51:02;;;;;;;7.13;6.00;;;;;;;17.53;44.66;100373.06;5008692;28;20535;-75
2022/10/16 09:53:47;;;;;;;10.75;6.80;;;;;;;17.79;43.78;100371.72;5007749;28;21239;-73
2022/10/16 09:56:36;;;;;;;9.70;6.22;;;;;;;17.72;44.03;100380.00;5008610;28;20404;-77
2022/10/16 09:59:12;;;;;;;6.78;5.47;;;;;;;17.47;44.31;100379.34;5009140;28;20083;-73
2022/10/16 10:01:40;;;;;;;11.25;6.82;;;;;;;17.16;44.01;100380.84;5008797;28;20413;-69
2022/10/16 10:04:07;;;;;;;10.63;5.95;;;;;;;17.67;43.56;100371.81;5010866;28;20072;-74
2022/10/16 10:06:50;;;;;;;9.75;5.40;;;;;;;18.00;42.91;100370.66;5010807;28;20025;-76
2022/10/16 10:09:21;;;;;;;10.38;5.20;;;;;;;17.54;43.03;100369.03;5009722;28;20044;-75
2022/10/16 10:11:57;;;;;;;10.82;6.45;;;;;;;17.61;44.30;100361.91;5012119;28;20109;-76
2022/10/16 10:14:26;;;;;;;11.60;5.93;;;;;;;18.26;42.86;100357.19;5011497;28;20026;-71
2022/10/16 10:16:53;;;;;;;13.30;5.82;;;;;;;18.67;41.60;100349.28;5009717;28;20116;-71
2022/10/16 10:19:23;;;;;;;7.28;5.05;;;;;;;18.72;40.17;100346.16;5001114;28;20400;-71
2022/10/16 10:21:51;;;;;;;10.02;5.07;;;;;;;19.13;40.17;100345.06;5006175;28;20460;-71
2022/10/16 10:24:19;;;;;;;7.85;4.50;;;;;;;18.29;39.21;100339.47;5003379;28;20030;-78
2022/10/16 10:27:16;;;;;;;6.25;4.53;;;;;;;18.61;40.80;100340.25;5010835;28;20034;-81
2022/10/16 10:30:08;;;;;;;9.88;5.07;;;;;;;18.88;40.08;100331.94;5005683;28;20065;-75
2022/10/16 10:33:00;;;;;;;6.40;4.45;;;;;;;18.40;40.17;100336.88;5007890;28;20053;-76
2022/10/16 10:35:39;;;;;;;5.40;4.85;;;;;;;18.00;40.65;100330.22;4991746;28;20132;-74
2022/10/16 10:38:31;;;;;;;5.95;5.03;;;;;;;18.69;39.78;100324.22;4995908;28;20616;-77
2022/10/16 10:41:09;;;;;;;7.18;4.60;;;;;;;19.12;39.11;100324.38;5002570;28;20061;-76
2022/10/16 10:43:37;;;;;;;9.10;5.50;;;;;;;19.25;37.67;100321.38;4995330;28;20070;-74
2022/10/16 10:46:16;;;;;;;9.60;5.43;;;;;;;19.01;37.82;100323.31;4999379;28;20577;-77
2022/10/16 10:49:03;;;;;;;9.15;5.93;;;;;;;19.26;38.09;100320.19;5002272;28;20034;-75
2022/10/16 10:51:42;;;;;;;6.78;5.82;;;;;;;19.65;37.99;100314.44;5007354;28;20022;-76
2022/10/16 10:54:25;;;;;;;6.78;4.95;;;;;;;19.89;36.81;100312.44;5010450;28;20432;-75
2022/10/16 10:56:58;;;;;;;8.27;4.00;;;;;;;19.84;35.19;100313.56;5001798;28;20034;-74
2022/10/16 10:59:42;;;;;;;7.15;4.50;;;;;;;20.02;35.49;100316.75;5004477;28;20393;-75
2022/10/16 11:02:18;;;;;;;16.90;6.38;;;;;;;19.63;36.08;100317.69;5012778;28;20061;-69
2022/10/16 11:05:24;;;;;;;6.40;4.95;;;;;;;19.49;36.12;100309.72;5013159;28;20087;-79
2022/10/16 11:07:57;;;;;;;17.33;6.40;;;;;;;19.51;36.89;100309.34;5013492;28;20555;-68
2022/10/16 11:10:27;;;;;;;10.65;5.60;;;;;;;19.66;36.30;100306.78;5009710;28;20113;-70
2022/10/16 11:13:04;;;;;;;6.13;5.05;;;;;;;19.78;35.91;100296.03;5014207;28;20030;-74
2022/10/16 11:15:35;;;;;;;8.52;4.88;;;;;;;19.88;36.30;100303.13;5013864;28;20073;-70
2022/10/16 11:18:32;;;;;;;12.43;6.03;;;;;;;19.83;36.12;100294.91;5015688;28;20029;-76
2022/10/16 11:21:04;;;;;;;8.60;5.30;;;;;;;18.96;36.43;100295.25;5012760;28;20516;-77
2022/10/16 11:23:53;;;;;;;7.30;4.43;;;;;;;19.61;35.93;100302.22;5014858;28;20029;-74
2022/10/16 11:26:26;;;;;;;6.38;4.60;;;;;;;19.82;35.77;100293.25;5013883;28;20022;-72
2022/10/16 11:28:56;;;;;;;7.80;4.45;;;;;;;19.84;35.13;100295.75;5015347;28;20461;-75